Time;durP1;ratioP1;P1;durP2;ratioP2;P2;SDS_P1;SDS_P2;PMS_P1;PMS_P2;Temp;Humidity;BMP_temperature;BMP_pressure;BME280_temperature;BME280_humidity;BME280_pressure;Samples;Min_cycle;Max_cycle;Signal;HPM_P1;HPM_P2
2024/05/06 00:01:41;;;;;;;7.67;6.93;;;14.70;99.90;;;;;;5417158;26;20216;-73
2024/05/06 00:04:11;;;;;;;7.23;6.47;;;14.70;99.90;;;;;;5416906;26;20276;-74
2024/05/06 00:06:38;;;;;;;8.00;7.20;;;14.60;99.90;;;;;;5417375;26;20248;-73
2024/05/06 00:09:04;;;;;;;7.23;6.53;;;14.70;99.90;;;;;;5417141;26;20224;-74
2024/05/06 00:11:30;;;;;;;6.97;6.33;;;14.60;99.90;;;;;;5416429;26;20335;-74
2024/05/06 00:13:55;;;;;;;8.90;6.60;;;14.60;99.90;;;;;;5417427;26;20317;-74
2024/05/06 00:16:21;;;;;;;7.33;6.63;;;14.60;99.90;;;;;;5385549;26;20216;-74
2024/05/06 00:18:46;;;;;;;7.93;7.00;;;14.70;99.90;;;;;;5416655;26;20341;-73
2024/05/06 00:21:12;;;;;;;7.83;7.03;;;14.70;99.90;;;;;;5385273;26;20281;-74
2024/05/06 00:23:37;;;;;;;7.13;6.40;;;14.70;99.90;;;;;;5416740;26;20216;-73
2024/05/06 00:26:04;;;;;;;7.60;6.90;;;14.70;99.90;;;;;;5416867;26;20212;-74
2024/05/06 00:28:29;;;;;;;7.50;6.80;;;14.70;99.90;;;;;;5417465;26;20208;-73
2024/05/06 00:30:55;;;;;;;7.13;6.40;;;14.70;99.90;;;;;;5416837;26;20746;-73
2024/05/06 00:33:21;;;;;;;7.87;7.17;;;14.70;99.90;;;;;;5417311;26;20232;-74
2024/05/06 00:35:46;;;;;;;11.40;7.30;;;14.70;99.90;;;;;;5417143;26;20348;-74
2024/05/06 00:38:13;;;;;;;8.07;7.37;;;14.60;99.90;;;;;;5416238;26;20598;-73
2024/05/06 00:40:39;;;;;;;8.40;7.60;;;14.60;99.90;;;;;;5416372;26;20233;-73
2024/05/06 00:43:04;;;;;;;7.33;6.70;;;14.60;99.90;;;;;;5415944;26;20416;-73
2024/05/06 00:45:30;;;;;;;7.60;6.87;;;14.60;99.90;;;;;;5416295;26;20247;-73
2024/05/06 00:47:57;;;;;;;7.53;6.83;;;14.70;99.90;;;;;;5415908;26;20224;-74
2024/05/06 00:50:24;;;;;;;7.47;6.53;;;14.60;99.90;;;;;;5415940;26;20240;-73
2024/05/06 00:52:50;;;;;;;7.70;6.73;;;14.70;99.90;;;;;;5415937;26;20212;-73
2024/05/06 00:55:16;;;;;;;7.97;7.17;;;14.60;99.90;;;;;;5414829;26;20243;-73
2024/05/06 00:57:42;;;;;;;7.47;6.67;;;14.60;99.90;;;;;;5416092;26;20272;-73
2024/05/06 01:00:09;;;;;;;11.77;7.33;;;14.60;99.90;;;;;;5415483;26;20247;-73
2024/05/06 01:02:35;;;;;;;7.50;6.73;;;14.60;99.90;;;;;;5415733;26;20324;-73
2024/05/06 01:05:00;;;;;;;8.00;7.20;;;14.60;99.90;;;;;;5415642;26;20204;-73
2024/05/06 01:07:26;;;;;;;7.73;7.03;;;14.60;99.90;;;;;;5416779;26;20284;-73
2024/05/06 01:09:52;;;;;;;8.87;6.90;;;14.60;99.90;;;;;;5415856;26;20934;-73
2024/05/06 01:12:18;;;;;;;7.77;7.07;;;14.70;99.90;;;;;;5414900;26;20208;-73
2024/05/06 01:14:44;;;;;;;8.23;7.20;;;14.60;99.90;;;;;;5415811;26;20220;-73
2024/05/06 01:17:09;;;;;;;9.37;7.10;;;14.70;99.90;;;;;;5415938;26;20559;-73
2024/05/06 01:19:35;;;;;;;9.10;7.37;;;14.60;99.90;;;;;;5415962;26;20244;-73
2024/05/06 01:22:04;;;;;;;8.07;7.33;;;14.60;99.90;;;;;;5415622;26;20259;-73
2024/05/06 01:24:30;;;;;;;7.50;6.77;;;14.60;99.90;;;;;;5415362;26;20745;-73
2024/05/06 01:26:57;;;;;;;8.03;7.23;;;14.60;99.90;;;;;;5415726;26;20212;-73
2024/05/06 01:29:23;;;;;;;8.17;7.47;;;14.60;99.90;;;;;;5415389;26;20224;-73
2024/05/06 01:31:48;;;;;;;8.23;7.47;;;14.60;99.90;;;;;;5415157;26;20263;-73
2024/05/06 01:34:14;;;;;;;8.80;7.30;;;14.50;99.90;;;;;;5415078;26;20313;-73
2024/05/06 01:36:39;;;;;;;8.80;7.90;;;14.60;99.90;;;;;;5383947;26;20539;-73
2024/05/06 01:39:05;;;;;;;9.60;7.60;;;14.60;99.90;;;;;;5415238;26;20558;-73
2024/05/06 01:41:31;;;;;;;7.93;7.20;;;14.50;99.90;;;;;;5415468;26;20692;-73
2024/05/06 01:43:57;;;;;;;8.07;7.27;;;14.50;99.90;;;;;;5415326;26;20320;-73
2024/05/06 01:46:22;;;;;;;8.37;7.57;;;14.40;99.90;;;;;;5415245;26;20232;-73
2024/05/06 01:48:48;;;;;;;7.60;7.00;;;14.40;99.90;;;;;;5415447;26;20559;-73
2024/05/06 01:51:13;;;;;;;8.20;7.40;;;14.40;99.90;;;;;;5489353;21;20258;-75
2024/05/06 01:53:39;;;;;;;8.67;7.20;;;14.40;99.90;;;;;;5487001;26;20325;-75
2024/05/06 01:56:05;;;;;;;8.07;6.67;;;14.30;99.90;;;;;;5487132;26;20218;-75
2024/05/06 01:58:30;;;;;;;7.60;6.90;;;14.30;99.90;;;;;;5487183;26;20206;-75
2024/05/06 02:00:56;;;;;;;7.53;6.93;;;14.30;99.90;;;;;;5484320;26;20287;-75
2024/05/06 02:03:21;;;;;;;7.87;7.13;;;14.30;99.90;;;;;;5487236;26;20306;-75
2024/05/06 02:05:47;;;;;;;7.77;7.07;;;14.20;99.90;;;;;;5487602;26;20233;-75
2024/05/06 02:08:12;;;;;;;7.63;6.93;;;14.20;99.90;;;;;;5487376;26;20665;-75
2024/05/06 02:10:38;;;;;;;7.77;7.07;;;14.30;99.90;;;;;;5487282;26;20218;-75
2024/05/06 02:13:03;;;;;;;8.83;7.50;;;14.30;99.90;;;;;;5486889;26;20202;-75
2024/05/06 02:15:29;;;;;;;7.80;7.10;;;14.30;99.90;;;;;;5484637;26;20705;-75
2024/05/06 02:17:55;;;;;;;8.30;7.60;;;14.30;99.90;;;;;;5487430;26;20249;-75
2024/05/06 02:20:20;;;;;;;8.23;7.37;;;14.40;99.90;;;;;;5487050;26;20334;-75
2024/05/06 02:22:46;;;;;;;7.83;7.10;;;14.40;99.90;;;;;;5486908;26;20206;-75
2024/05/06 02:25:11;;;;;;;7.93;6.63;;;14.40;99.90;;;;;;5487691;26;20256;-75
2024/05/06 02:27:37;;;;;;;8.03;7.23;;;14.40;99.90;;;;;;5487588;26;20340;-75
2024/05/06 02:30:03;;;;;;;7.80;7.10;;;14.50;99.90;;;;;;5487548;26;20287;-75
2024/05/06 02:32:28;;;;;;;8.73;7.50;;;14.50;99.90;;;;;;5466203;26;20215;-75
2024/05/06 02:34:54;;;;;;;9.33;7.03;;;14.50;99.90;;;;;;5451276;26;20589;-75
2024/05/06 02:37:19;;;;;;;8.17;7.30;;;14.40;99.90;;;;;;5451312;26;20229;-75
2024/05/06 02:39:45;;;;;;;8.27;7.53;;;14.40;99.90;;;;;;5451344;26;20331;-75
2024/05/06 02:42:10;;;;;;;8.10;7.33;;;14.40;99.90;;;;;;5450714;26;20263;-75
2024/05/06 02:44:36;;;;;;;9.47;7.30;;;14.40;99.90;;;;;;5451168;26;20207;-74
2024/05/06 02:47:02;;;;;;;8.00;7.20;;;14.40;99.90;;;;;;5452316;26;20290;-75
2024/05/06 02:49:27;;;;;;;9.27;7.70;;;14.40;99.90;;;;;;5450983;26;20215;-75
2024/05/06 02:51:53;;;;;;;8.13;7.33;;;14.40;99.90;;;;;;5451232;26;20655;-74
2024/05/06 02:54:18;;;;;;;8.40;7.60;;;14.40;99.90;;;;;;5450779;26;20560;-75
2024/05/06 02:56:44;;;;;;;9.40;7.60;;;14.30;99.90;;;;;;5451364;26;20207;-75
2024/05/06 02:59:09;;;;;;;8.67;7.73;;;14.30;99.90;;;;;;5450810;26;20215;-75
2024/05/06 03:01:35;;;;;;;8.57;7.80;;;14.20;99.90;;;;;;5450616;26;20219;-75
2024/05/06 03:04:01;;;;;;;8.07;7.33;;;14.20;99.90;;;;;;5452922;26;20741;-75
2024/05/06 03:06:26;;;;;;;7.73;7.03;;;14.20;99.90;;;;;;5450664;26;20299;-74
2024/05/06 03:08:52;;;;;;;9.40;8.00;;;14.20;99.90;;;;;;5450687;26;20219;-75
2024/05/06 03:11:17;;;;;;;8.87;7.97;;;14.20;99.90;;;;;;5450330;26;20227;-75
2024/05/06 03:13:43;;;;;;;8.43;7.70;;;14.20;99.90;;;;;;5450155;26;20211;-75
2024/05/06 03:16:08;;;;;;;7.80;6.70;;;14.20;99.90;;;;;;5454486;26;20210;-75
2024/05/06 03:18:34;;;;;;;8.20;7.37;;;14.20;99.90;;;;;;5488386;26;20213;-75
2024/05/06 03:21:00;;;;;;;9.70;7.60;;;14.20;99.90;;;;;;5490368;26;20265;-75
2024/05/06 03:23:25;;;;;;;7.57;6.87;;;14.20;99.90;;;;;;5457949;26;20611;-75
2024/05/06 03:25:51;;;;;;;9.77;7.93;;;14.20;99.90;;;;;;5490268;26;20210;-75
2024/05/06 03:28:16;;;;;;;9.00;8.20;;;14.20;99.90;;;;;;5490155;26;20210;-75
2024/05/06 03:30:42;;;;;;;8.03;7.23;;;14.20;99.90;;;;;;5486250;26;20572;-74
2024/05/06 03:33:08;;;;;;;9.07;7.50;;;14.20;99.90;;;;;;5453893;26;20300;-74
2024/05/06 03:35:33;;;;;;;7.97;7.27;;;14.20;99.90;;;;;;5454121;26;20211;-75
2024/05/06 03:37:59;;;;;;;9.87;7.27;;;14.20;99.90;;;;;;5453872;26;20227;-74
2024/05/06 03:40:24;;;;;;;7.67;6.87;;;14.20;99.90;;;;;;5453132;26;20226;-75
2024/05/06 03:42:50;;;;;;;8.27;7.43;;;14.10;99.90;;;;;;5453681;26;20215;-75
2024/05/06 03:45:15;;;;;;;8.50;7.43;;;14.00;99.90;;;;;;5453523;26;20219;-75
2024/05/06 03:47:43;;;;;;;7.57;6.87;;;14.00;99.90;;;;;;5461769;26;20234;-75
2024/05/06 03:50:08;;;;;;;8.00;6.90;;;13.90;99.90;;;;;;5489024;26;20226;-74
2024/05/06 03:52:36;;;;;;;7.57;6.87;;;13.90;99.90;;;;;;5489514;26;20248;-74
2024/05/06 03:55:02;;;;;;;8.93;7.50;;;13.90;99.90;;;;;;5489967;26;20249;-75
2024/05/06 03:57:27;;;;;;;8.07;7.13;;;13.90;99.90;;;;;;5489881;26;20619;-75
2024/05/06 03:59:53;;;;;;;7.23;6.53;;;13.90;99.90;;;;;;5490123;26;20713;-75
2024/05/06 04:02:18;;;;;;;7.10;6.40;;;13.90;99.90;;;;;;5489812;26;20214;-75
2024/05/06 04:04:44;;;;;;;8.60;7.67;;;13.90;99.90;;;;;;5488803;26;20696;-75
2024/05/06 04:07:09;;;;;;;8.63;7.47;;;14.00;99.90;;;;;;5489793;26;20206;-75
2024/05/06 04:09:37;;;;;;;7.53;6.77;;;14.00;99.90;;;;;;5489731;26;20302;-75
2024/05/06 04:12:02;;;;;;;8.33;7.43;;;14.00;99.90;;;;;;5489253;26;20674;-75
2024/05/06 04:14:28;;;;;;;8.00;7.23;;;14.00;99.90;;;;;;5489668;26;20678;-75
2024/05/06 04:16:54;;;;;;;8.53;7.73;;;14.10;99.90;;;;;;5490039;26;20295;-75
2024/05/06 04:19:19;;;;;;;8.50;7.30;;;14.10;99.90;;;;;;5476570;26;20282;-75
2024/05/06 04:21:45;;;;;;;7.30;6.60;;;14.20;99.90;;;;;;5453167;26;20304;-75
2024/05/06 04:27:07;;;;;;;8.43;6.33;;;14.20;99.90;;;;;;5453635;26;20695;-75
2024/05/06 04:29:33;;;;;;;7.73;7.03;;;14.20;99.90;;;;;;5453118;26;20678;-75
2024/05/06 04:31:59;;;;;;;8.10;7.40;;;14.20;99.90;;;;;;5452947;26;20261;-75
2024/05/06 04:34:24;;;;;;;7.43;6.80;;;14.20;99.90;;;;;;5451612;26;20253;-75
2024/05/06 04:36:50;;;;;;;7.87;6.73;;;14.20;99.90;;;;;;5479702;26;20645;-76
2024/05/06 04:39:15;;;;;;;7.87;7.13;;;14.30;99.90;;;;;;5488730;26;20218;-75
2024/05/06 04:41:41;;;;;;;7.03;6.33;;;14.30;99.90;;;;;;5488186;26;20701;-75
2024/05/06 04:44:07;;;;;;;7.80;7.10;;;14.30;99.90;;;;;;5488604;26;20525;-75
2024/05/06 04:46:33;;;;;;;9.13;7.27;;;14.30;99.90;;;;;;5488125;26;20361;-75
2024/05/06 04:48:58;;;;;;;7.83;7.13;;;14.30;99.90;;;;;;5488427;26;20207;-74
2024/05/06 04:51:24;;;;;;;7.20;6.53;;;14.30;99.90;;;;;;5463141;26;20778;-76
2024/05/06 04:53:49;;;;;;;7.53;6.93;;;14.40;99.90;;;;;;5451669;26;20203;-75
2024/05/06 04:56:15;;;;;;;8.23;7.30;;;14.40;99.90;;;;;;5451758;26;20550;-76
2024/05/06 04:58:40;;;;;;;7.43;6.77;;;14.40;99.90;;;;;;5451973;26;20231;-75
2024/05/06 05:01:06;;;;;;;8.50;7.23;;;14.40;99.90;;;;;;5459744;26;20301;-75
2024/05/06 05:03:31;;;;;;;7.27;6.57;;;14.50;99.90;;;;;;5487697;26;20260;-75
2024/05/06 05:05:57;;;;;;;7.37;6.73;;;14.50;99.90;;;;;;5487895;26;20291;-76
2024/05/06 05:08:23;;;;;;;7.07;6.47;;;14.40;99.90;;;;;;5487581;26;20251;-75
2024/05/06 05:10:48;;;;;;;6.80;6.20;;;14.40;99.90;;;;;;5487720;26;20218;-75
2024/05/06 05:13:14;;;;;;;7.77;7.00;;;14.40;99.90;;;;;;5487348;26;20253;-75
2024/05/06 05:15:39;;;;;;;8.20;7.40;;;14.40;99.90;;;;;;5488281;26;20287;-75
2024/05/06 05:18:05;;;;;;;7.80;7.10;;;14.40;99.90;;;;;;5488345;26;20217;-75
2024/05/06 05:20:30;;;;;;;7.73;6.93;;;14.40;99.90;;;;;;5487575;26;20756;-75
2024/05/06 05:22:56;;;;;;;6.77;6.17;;;14.50;99.90;;;;;;5455357;26;20222;-75
2024/05/06 05:25:22;;;;;;;7.77;6.73;;;14.50;99.90;;;;;;5487719;26;20206;-75
2024/05/06 05:27:47;;;;;;;7.30;6.70;;;14.50;99.90;;;;;;5487573;26;20210;-75
2024/05/06 05:30:13;;;;;;;7.00;6.30;;;14.50;99.90;;;;;;5482385;26;20607;-75
2024/05/06 05:32:38;;;;;;;7.43;6.83;;;14.60;99.90;;;;;;5450815;26;20262;-75
2024/05/06 05:35:05;;;;;;;7.30;6.23;;;14.60;99.90;;;;;;5451241;26;20215;-75
2024/05/06 05:37:31;;;;;;;8.07;6.63;;;14.70;99.90;;;;;;5451338;26;20219;-75
2024/05/06 05:39:57;;;;;;;8.20;7.47;;;14.70;99.90;;;;;;5451028;26;20219;-75
2024/05/06 05:42:22;;;;;;;7.50;6.80;;;14.80;99.90;;;;;;5450131;26;20728;-75
2024/05/06 05:44:48;;;;;;;7.50;6.80;;;14.80;99.90;;;;;;5455849;26;20237;-74
2024/05/06 05:47:14;;;;;;;7.90;7.10;;;14.90;99.90;;;;;;5487784;26;20202;-75
2024/05/06 05:49:39;;;;;;;7.57;6.60;;;15.00;99.90;;;;;;5487885;26;20214;-75
2024/05/06 05:52:05;;;;;;;7.13;6.50;;;15.00;99.90;;;;;;5487609;26;20248;-75
2024/05/06 05:54:30;;;;;;;8.40;6.70;;;15.10;99.90;;;;;;5484372;26;20256;-75
2024/05/06 05:56:56;;;;;;;7.53;6.83;;;15.20;99.90;;;;;;5461828;26;20223;-75
2024/05/06 05:59:22;;;;;;;7.13;6.43;;;15.30;99.90;;;;;;5481554;26;20263;-75
2024/05/06 06:01:47;;;;;;;8.07;6.90;;;15.30;99.90;;;;;;5487003;26;20257;-75
2024/05/06 06:04:14;;;;;;;7.47;6.00;;;15.40;99.90;;;;;;5486968;26;20310;-75
2024/05/06 06:06:40;;;;;;;7.10;6.40;;;15.50;99.90;;;;;;5487161;26;20304;-75
2024/05/06 06:09:06;;;;;;;6.80;5.87;;;15.60;99.90;;;;;;5449848;26;20722;-75
2024/05/06 06:11:31;;;;;;;6.87;6.20;;;15.80;99.90;;;;;;5451247;26;20223;-75
2024/05/06 06:13:57;;;;;;;8.60;6.10;;;15.80;99.90;;;;;;5479757;26;20206;-75
2024/05/06 06:16:23;;;;;;;6.70;6.07;;;15.90;99.90;;;;;;5450479;26;20254;-75
2024/05/06 06:18:48;;;;;;;7.30;5.83;;;15.90;99.90;;;;;;5450305;26;20211;-74
2024/05/06 06:21:14;;;;;;;6.30;5.70;;;16.00;99.90;;;;;;5451378;26;20219;-75
2024/05/06 06:23:42;;;;;;;9.20;5.67;;;16.10;99.90;;;;;;5486121;26;20257;-74
2024/05/06 06:26:09;;;;;;;6.60;5.90;;;16.20;99.90;;;;;;5486827;26;20206;-75
2024/05/06 06:28:34;;;;;;;5.97;5.47;;;16.30;99.90;;;;;;5486364;26;20291;-74
2024/05/06 06:31:00;;;;;;;6.97;5.90;;;16.50;99.90;;;;;;5485815;26;20274;-74
2024/05/06 06:33:25;;;;;;;6.33;5.50;;;16.70;99.90;;;;;;5485965;26;20202;-76
2024/05/06 06:35:51;;;;;;;6.17;5.13;;;16.80;99.90;;;;;;5484423;26;20252;-75
2024/05/06 06:38:18;;;;;;;5.87;5.37;;;17.00;99.90;;;;;;5449959;26;20215;-75
2024/05/06 06:40:43;;;;;;;6.97;5.90;;;17.10;99.90;;;;;;5449618;26;20231;-75
2024/05/06 06:43:09;;;;;;;9.47;6.33;;;17.20;99.90;;;;;;5449747;26;20311;-75
2024/05/06 06:45:34;;;;;;;7.70;6.90;;;17.40;99.90;;;;;;5449941;26;20605;-75
2024/05/06 06:48:00;;;;;;;8.00;7.07;;;17.40;99.90;;;;;;5449939;26;20257;-75
2024/05/06 06:50:26;;;;;;;8.17;6.70;;;17.50;99.90;;;;;;5449545;26;20283;-75
2024/05/06 06:52:51;;;;;;;10.00;6.83;;;17.70;99.90;;;;;;5450449;26;20223;-74
2024/05/06 06:55:17;;;;;;;9.40;6.53;;;17.80;99.90;;;;;;5449601;26;20241;-75
2024/05/06 06:57:43;;;;;;;5.90;5.40;;;17.90;99.90;;;;;;5450010;26;20254;-75
2024/05/06 07:00:08;;;;;;;6.90;6.20;;;18.00;99.90;;;;;;5449584;26;20261;-75
2024/05/06 07:02:34;;;;;;;6.83;6.33;;;18.00;99.90;;;;;;5449707;26;20266;-75
2024/05/06 07:04:59;;;;;;;6.93;6.33;;;18.00;99.90;;;;;;5450185;26;20211;-75
2024/05/06 07:07:25;;;;;;;6.67;5.97;;;18.10;99.90;;;;;;5484943;26;20222;-75
2024/05/06 07:09:51;;;;;;;5.80;5.30;;;18.20;99.90;;;;;;5486415;26;20276;-75
2024/05/06 07:12:16;;;;;;;6.93;6.23;;;18.30;99.90;;;;;;5486057;26;20317;-75
2024/05/06 07:14:42;;;;;;;6.07;5.57;;;18.40;99.90;;;;;;5482630;26;20557;-75
2024/05/06 07:17:07;;;;;;;6.20;4.47;;;18.60;99.90;;;;;;5486338;26;20308;-75
2024/05/06 07:19:33;;;;;;;5.07;4.57;;;18.80;99.90;;;;;;5485693;26;20206;-75
2024/05/06 07:22:00;;;;;;;4.82;4.30;;;18.90;99.90;;;;;;5473689;26;20274;-75
2024/05/06 07:24:25;;;;;;;4.97;4.30;;;19.10;99.90;;;;;;5449875;26;20219;-75
2024/05/06 07:26:51;;;;;;;4.82;4.40;;;19.10;99.90;;;;;;5449440;26;20207;-75
2024/05/06 07:29:16;;;;;;;5.20;4.78;;;19.10;99.90;;;;;;5449224;26;20258;-76
2024/05/06 07:31:42;;;;;;;4.82;4.35;;;19.10;99.90;;;;;;5448737;26;20227;-76
2024/05/06 07:34:08;;;;;;;4.65;4.25;;;19.20;99.90;;;;;;5449395;26;20316;-76
2024/05/06 07:36:33;;;;;;;5.20;4.70;;;19.50;99.90;;;;;;5448366;26;20258;-76
2024/05/06 07:38:59;;;;;;;8.77;6.55;;;19.80;99.90;;;;;;5448953;26;20301;-75
2024/05/06 07:41:25;;;;;;;7.38;6.88;;;20.10;99.90;;;;;;5450688;26;20291;-74
2024/05/06 07:43:50;;;;;;;5.80;5.40;;;20.30;99.90;;;;;;5448600;26;20289;-74
2024/05/06 07:46:16;;;;;;;5.68;4.55;;;20.40;99.90;;;;;;5449007;26;20304;-75
2024/05/06 07:48:41;;;;;;;5.93;4.85;;;20.50;99.90;;;;;;5448605;26;20207;-75
2024/05/06 07:51:09;;;;;;;5.80;5.30;;;20.70;99.90;;;;;;5982293;20;20257;-75
2024/05/06 07:53:35;;;;;;;6.20;5.80;;;21.00;99.90;;;;;;5485526;26;20202;-74
2024/05/06 07:56:00;;;;;;;6.28;5.78;;;21.30;99.90;;;;;;5485887;26;20257;-73
2024/05/06 07:58:29;;;;;;;6.03;5.45;;;21.50;99.90;;;;;;5486770;26;20214;-74
2024/05/06 08:00:55;;;;;;;6.35;5.35;;;21.50;99.90;;;;;;5478384;26;20547;-74
2024/05/06 08:03:21;;;;;;;4.43;4.05;;;21.50;99.90;;;;;;5485743;26;20252;-74
2024/05/06 08:05:47;;;;;;;4.20;3.90;;;21.40;99.90;;;;;;5489502;26;20987;-74
2024/05/06 08:08:13;;;;;;;4.78;4.38;;;21.30;99.90;;;;;;5490280;26;20571;-73
2024/05/06 08:10:39;;;;;;;4.18;3.70;;;21.20;99.90;;;;;;5489600;26;20222;-74
2024/05/06 08:13:05;;;;;;;4.47;4.07;;;21.20;99.90;;;;;;5489859;26;20291;-74
2024/05/06 08:15:31;;;;;;;3.70;3.40;;;21.40;99.90;;;;;;5490619;26;20299;-73
2024/05/06 08:17:57;;;;;;;4.07;3.47;;;21.60;99.90;;;;;;5489703;26;20249;-74
2024/05/06 08:20:23;;;;;;;3.75;3.45;;;21.80;99.90;;;;;;5488862;26;20233;-73
2024/05/06 08:22:48;;;;;;;3.88;3.58;;;22.00;99.90;;;;;;5489565;26;20703;-74
2024/05/06 08:25:14;;;;;;;3.85;3.47;;;22.20;99.90;;;;;;5489629;26;20744;-74
2024/05/06 08:27:40;;;;;;;3.92;3.63;;;22.10;99.90;;;;;;5472668;26;20335;-74
2024/05/06 08:30:06;;;;;;;4.53;3.85;;;22.10;99.90;;;;;;5461269;26;20260;-74
2024/05/06 08:32:36;;;;;;;4.57;4.13;;;22.10;99.90;;;;;;5478284;26;20253;-74
2024/05/06 08:35:02;;;;;;;4.47;4.18;;;22.20;99.90;;;;;;5487780;26;20230;-74
2024/05/06 08:37:27;;;;;;;3.60;3.30;;;22.30;99.90;;;;;;5462323;26;20313;-74
2024/05/06 08:39:53;;;;;;;3.30;3.00;;;22.60;99.90;;;;;;5488374;26;20229;-74
2024/05/06 08:42:20;;;;;;;4.47;3.20;;;22.80;99.90;;;;;;5464565;26;20780;-74
2024/05/06 08:44:48;;;;;;;5.75;3.60;;;23.00;99.90;;;;;;5496295;26;20820;-73
2024/05/06 08:47:18;;;;;;;4.35;3.42;;;23.20;99.90;;;;;;5498401;26;20245;-73
2024/05/06 08:49:45;;;;;;;3.47;3.17;;;23.50;99.90;;;;;;5497303;26;20214;-73
2024/05/06 08:52:13;;;;;;;3.50;3.20;;;23.70;99.90;;;;;;5464528;26;20281;-74
2024/05/06 08:54:39;;;;;;;4.03;2.88;;;24.10;99.90;;;;;;5495796;26;20210;-74
2024/05/06 08:57:06;;;;;;;2.90;2.70;;;24.20;99.90;;;;;;5495397;26;20241;-73
2024/05/06 08:59:36;;;;;;;4.13;2.63;;;24.30;99.90;;;;;;5496487;26;20850;-74
2024/05/06 09:02:02;;;;;;;2.90;2.60;;;24.60;99.90;;;;;;5496234;26;20252;-74
2024/05/06 09:04:29;;;;;;;5.40;3.10;;;24.80;99.90;;;;;;5497237;26;20337;-73
2024/05/06 09:06:57;;;;;;;4.85;3.00;;;25.10;99.90;;;;;;5496641;26;20353;-74
2024/05/06 09:09:23;;;;;;;2.67;2.47;;;25.30;99.90;;;;;;5496631;26;20279;-73
2024/05/06 09:11:50;;;;;;;3.08;2.85;;;25.50;99.90;;;;;;5463975;26;20230;-74
2024/05/06 09:14:19;;;;;;;3.00;2.80;;;25.70;99.90;;;;;;5496421;26;20206;-73
2024/05/06 09:16:47;;;;;;;3.65;2.90;;;25.70;99.90;;;;;;5495108;26;20351;-74
2024/05/06 09:19:13;;;;;;;2.97;2.78;;;25.60;99.90;;;;;;5497545;26;20788;-73
2024/05/06 09:21:39;;;;;;;3.08;2.60;;;25.70;99.90;;;;;;5460372;26;20295;-73
2024/05/06 09:24:08;;;;;;;2.80;2.60;;;26.10;99.90;;;;;;5496193;26;20294;-73
2024/05/06 09:26:34;;;;;;;2.60;2.50;;;26.40;99.90;;;;;;5434913;26;20262;-73
2024/05/06 09:29:00;;;;;;;3.38;2.55;;;26.40;99.90;;;;;;5428902;26;20215;-74
2024/05/06 09:31:28;;;;;;;2.80;2.60;;;26.40;99.90;;;;;;5461417;26;20270;-73
2024/05/06 09:33:57;;;;;;;2.92;2.70;;;26.10;99.90;;;;;;5427987;26;20262;-74
2024/05/06 09:36:23;;;;;;;4.18;2.80;;;25.70;99.90;;;;;;5461270;26;20223;-73
2024/05/06 09:38:54;;;;;;;3.13;2.92;;;25.50;99.90;;;;;;5460201;26;20404;-73
2024/05/06 09:41:28;;;;;;;4.22;3.20;;;25.40;99.90;;;;;;5436767;26;20257;-74
2024/05/06 09:43:56;;;;;;;4.45;2.78;;;25.10;99.90;;;;;;5495215;26;20249;-73
2024/05/06 09:46:24;;;;;;;3.13;2.80;;;24.90;99.90;;;;;;5466516;26;20606;-73
2024/05/06 09:48:50;;;;;;;4.13;2.53;;;24.50;99.90;;;;;;5497146;26;20221;-74
2024/05/06 09:51:19;;;;;;;3.00;2.70;;;24.10;99.90;;;;;;5497199;26;20266;-74
2024/05/06 09:53:45;;;;;;;3.60;2.80;;;23.60;99.90;;;;;;5496156;26;20222;-74
2024/05/06 09:56:11;;;;;;;3.30;3.00;;;23.20;99.90;;;;;;5488377;26;20310;-74
2024/05/06 09:58:38;;;;;;;3.88;3.58;;;23.00;99.90;;;;;;5487509;26;20233;-74
2024/05/06 10:01:06;;;;;;;4.00;3.70;;;22.90;99.90;;;;;;5486954;26;20230;-75
2024/05/06 10:03:33;;;;;;;4.57;3.53;;;22.90;99.90;;;;;;5453555;26;20278;-74
2024/05/06 10:06:05;;;;;;;3.42;3.22;;;22.90;99.90;;;;;;5487206;26;20322;-74
2024/05/06 10:08:33;;;;;;;3.58;3.28;;;22.90;99.90;;;;;;5488035;26;20357;-74
2024/05/06 10:10:59;;;;;;;4.47;3.53;;;23.10;99.90;;;;;;5487417;26;20226;-74
2024/05/06 10:13:24;;;;;;;6.18;3.22;;;23.10;99.90;;;;;;5487353;26;20207;-74
2024/05/06 10:15:51;;;;;;;4.85;4.05;;;23.10;99.90;;;;;;5454669;26;20241;-74
2024/05/06 10:18:19;;;;;;;3.97;3.67;;;23.00;99.90;;;;;;5486595;26;20222;-74
2024/05/06 10:21:05;;;;;;;4.50;3.90;;;22.80;99.90;;;;;;5472038;26;20774;-74
2024/05/06 10:23:33;;;;;;;4.28;3.97;;;22.50;99.90;;;;;;5487361;26;20338;-75
2024/05/06 10:26:09;;;;;;;4.22;3.75;;;22.20;99.90;;;;;;5489016;26;20264;-74
2024/05/06 10:28:45;;;;;;;3.80;3.45;;;22.00;99.90;;;;;;5455454;26;20215;-75
2024/05/06 10:31:15;;;;;;;5.43;5.03;;;21.90;99.90;;;;;;5487118;26;20222;-75
2024/05/06 10:33:42;;;;;;;8.07;7.57;;;21.80;99.90;;;;;;5487349;26;20226;-74
2024/05/06 10:36:08;;;;;;;6.15;5.70;;;21.80;99.90;;;;;;5487087;26;20326;-74
2024/05/06 10:38:35;;;;;;;6.47;6.07;;;21.90;99.90;;;;;;5487218;26;20218;-74
2024/05/06 10:41:02;;;;;;;6.55;6.15;;;21.90;99.90;;;;;;5454877;26;20241;-75
2024/05/06 10:43:29;;;;;;;4.82;4.53;;;22.00;99.90;;;;;;5487539;26;20210;-74
2024/05/06 10:45:58;;;;;;;5.53;5.13;;;21.90;99.90;;;;;;5487612;26;20226;-74
2024/05/06 10:48:24;;;;;;;4.32;4.00;;;22.00;99.90;;;;;;5487443;26;20222;-74
2024/05/06 10:50:53;;;;;;;4.32;4.07;;;22.00;99.90;;;;;;5483890;26;20806;-74
2024/05/06 10:53:21;;;;;;;3.92;3.63;;;22.00;99.90;;;;;;5486758;26;20274;-75
2024/05/06 10:55:48;;;;;;;4.10;3.80;;;22.20;99.90;;;;;;5487165;26;20267;-74
2024/05/06 10:58:14;;;;;;;5.40;4.93;;;22.30;99.90;;;;;;5487234;26;20210;-74
2024/05/06 11:00:40;;;;;;;6.68;6.18;;;22.30;99.90;;;;;;5486326;26;20801;-75
2024/05/06 11:03:07;;;;;;;6.40;6.00;;;22.30;99.90;;;;;;5485420;26;20227;-75
2024/05/06 11:05:34;;;;;;;4.07;3.83;;;22.30;99.90;;;;;;5485930;26;20767;-75
2024/05/06 11:08:03;;;;;;;6.30;5.90;;;22.30;99.90;;;;;;5486130;26;20314;-75
2024/05/06 11:10:38;;;;;;;4.05;3.85;;;22.20;99.90;;;;;;5485799;26;20265;-75
2024/05/06 11:13:04;;;;;;;3.15;2.95;;;22.00;99.90;;;;;;5486370;26;20209;-75
2024/05/06 11:15:30;;;;;;;3.40;3.20;;;21.70;99.90;;;;;;5486193;26;20223;-75
2024/05/06 11:17:57;;;;;;;4.07;3.15;;;21.40;99.90;;;;;;5486184;26;20253;-75
2024/05/06 11:20:33;;;;;;;4.13;3.85;;;21.20;99.90;;;;;;5486139;26;20242;-75
2024/05/06 11:23:06;;;;;;;4.05;3.75;;;21.00;99.90;;;;;;5486070;26;20407;-75
2024/05/06 11:25:40;;;;;;;4.00;3.80;;;20.80;99.90;;;;;;5486397;26;20264;-75
2024/05/06 11:28:07;;;;;;;4.10;3.80;;;20.60;99.90;;;;;;5485675;26;20606;-75
2024/05/06 11:30:36;;;;;;;3.20;3.00;;;20.50;99.90;;;;;;5485701;26;20258;-75
2024/05/06 11:33:06;;;;;;;2.90;2.70;;;20.30;99.90;;;;;;5484866;26;20230;-75
2024/05/06 11:35:33;;;;;;;3.10;2.90;;;19.90;99.90;;;;;;5486278;26;20273;-75
2024/05/06 11:37:58;;;;;;;3.72;3.38;;;19.50;99.90;;;;;;5486494;26;20359;-75
2024/05/06 11:40:24;;;;;;;3.70;3.40;;;19.30;99.90;;;;;;5489019;26;20222;-75
2024/05/06 11:42:50;;;;;;;4.20;3.93;;;19.10;99.90;;;;;;5489776;26;20254;-75
2024/05/06 11:45:16;;;;;;;4.80;4.50;;;19.00;99.90;;;;;;5457093;26;20226;-75
2024/05/06 11:47:42;;;;;;;5.50;5.10;;;18.90;99.90;;;;;;5489814;26;20306;-75
2024/05/06 11:50:08;;;;;;;6.30;5.10;;;18.90;99.90;;;;;;5489473;26;20218;-75
2024/05/06 11:52:34;;;;;;;5.45;4.95;;;18.80;99.90;;;;;;5489449;26;20226;-75
2024/05/06 11:55:00;;;;;;;5.75;5.20;;;18.50;99.90;;;;;;5489194;26;20611;-75
2024/05/06 11:57:27;;;;;;;5.90;5.40;;;18.30;99.90;;;;;;5489358;26;20218;-75
2024/05/06 11:59:53;;;;;;;6.47;5.87;;;18.20;99.90;;;;;;5489401;26;20289;-75
2024/05/06 12:02:18;;;;;;;7.13;5.73;;;18.10;99.90;;;;;;5457597;26;20581;-74
2024/05/06 12:04:44;;;;;;;7.10;6.50;;;18.10;99.90;;;;;;5489742;26;20206;-74
2024/05/06 12:07:10;;;;;;;7.00;6.27;;;18.00;99.90;;;;;;5489639;26;20273;-74
2024/05/06 12:09:35;;;;;;;7.43;6.73;;;17.90;99.90;;;;;;5489219;26;20214;-74
2024/05/06 12:12:01;;;;;;;7.90;6.80;;;17.70;99.90;;;;;;5455393;26;20265;-74
2024/05/06 12:14:27;;;;;;;9.90;6.73;;;17.50;99.90;;;;;;5488385;26;20222;-74
2024/05/06 12:16:53;;;;;;;7.73;7.00;;;17.40;99.90;;;;;;5489399;26;20224;-75
2024/05/06 12:19:19;;;;;;;9.57;7.23;;;17.30;99.90;;;;;;5489231;26;20254;-74
2024/05/06 12:21:44;;;;;;;8.77;7.73;;;17.10;99.90;;;;;;5488287;26;20322;-74
2024/05/06 12:24:10;;;;;;;7.80;7.10;;;17.00;99.90;;;;;;5488143;26;20780;-74
2024/05/06 12:26:37;;;;;;;7.87;7.17;;;17.00;99.90;;;;;;5489788;26;20226;-73
2024/05/06 12:29:03;;;;;;;7.80;7.07;;;16.90;99.90;;;;;;5489975;26;20318;-74
2024/05/06 12:31:29;;;;;;;7.50;6.90;;;16.90;99.90;;;;;;5490275;26;20234;-74
2024/05/06 12:33:55;;;;;;;7.43;6.83;;;17.00;99.90;;;;;;5489653;26;20683;-74
2024/05/06 12:36:20;;;;;;;6.63;6.13;;;16.90;99.90;;;;;;5489643;26;20222;-74
2024/05/06 12:38:48;;;;;;;7.27;6.67;;;16.90;99.90;;;;;;5489721;26;20310;-74
2024/05/06 12:41:14;;;;;;;7.20;6.53;;;16.90;99.90;;;;;;5489345;26;20230;-74
2024/05/06 12:43:39;;;;;;;7.23;6.70;;;16.90;99.90;;;;;;5488382;26;20210;-74